Time;durP1;ratioP1;P1;durP2;ratioP2;P2;SDS_P1;SDS_P2;PMS_P1;PMS_P2;Temp;Humidity;BMP_temperature;BMP_pressure;BME280_temperature;BME280_humidity;BME280_pressure;Samples;Min_cycle;Max_cycle;Signal;HPM_P1;HPM_P2
2023/07/09 00:01:18;;;;;;;3.00;0.80;;;;;;;15.84;100.00;99604.65;104117;1270;59297;-48
2023/07/09 00:03:48;;;;;;;1.90;0.50;;;;;;;15.80;100.00;99600.10;104230;1266;72273;-47
2023/07/09 00:06:15;;;;;;;0.80;0.50;;;;;;;15.76;100.00;99595.86;104494;1266;68381;-47
2023/07/09 00:08:47;;;;;;;0.90;0.60;;;;;;;15.73;100.00;99596.63;104886;1269;73096;-48
2023/07/09 00:11:15;;;;;;;1.60;0.40;;;;;;;15.74;100.00;99597.11;104804;1266;61673;-47
2023/07/09 00:13:42;;;;;;;0.60;0.40;;;;;;;15.74;100.00;99595.06;104131;1264;60045;-47
2023/07/09 00:16:19;;;;;;;1.30;0.50;;;;;;;15.76;100.00;99593.13;104143;1267;73237;-48
2023/07/09 00:18:48;;;;;;;1.30;0.50;;;;;;;15.77;100.00;99591.44;104618;1264;66542;-46
2023/07/09 00:21:20;;;;;;;3.70;0.50;;;;;;;15.77;100.00;99584.38;105026;1257;72685;-48
2023/07/09 00:23:48;;;;;;;1.30;0.40;;;;;;;15.77;100.00;99580.38;104553;1260;60564;-47
2023/07/09 00:26:16;;;;;;;1.10;0.50;;;;;;;15.76;100.00;99584.05;104763;1257;59753;-48
2023/07/09 00:28:44;;;;;;;0.50;0.50;;;;;;;15.74;100.00;99582.39;104794;1257;73094;-47
2023/07/09 00:31:13;;;;;;;3.20;0.50;;;;;;;15.71;100.00;99582.08;104519;1257;67894;-48
2023/07/09 00:33:41;;;;;;;1.50;0.80;;;;;;;15.68;100.00;99579.95;105481;1257;72953;-47
2023/07/09 00:36:18;;;;;;;1.30;0.50;;;;;;;15.66;100.00;99575.75;104559;1260;60511;-48
2023/07/09 00:38:47;;;;;;;1.40;0.50;;;;;;;15.66;100.00;99574.36;105357;1257;60020;-48
2023/07/09 00:41:18;;;;;;;2.80;0.40;;;;;;;15.65;100.00;99574.06;106508;1258;73504;-46
2023/07/09 00:43:46;;;;;;;5.70;0.40;;;;;;;15.64;100.00;99573.55;108709;1257;68607;-49
2023/07/09 00:46:20;;;;;;;2.80;0.40;;;;;;;15.65;100.00;99571.32;108713;1259;73203;-50
2023/07/09 00:48:50;;;;;;;3.10;0.50;;;;;;;15.66;100.00;99568.36;108754;1260;60581;-48
2023/07/09 00:51:20;;;;;;;0.80;0.50;;;;;;;15.66;100.00;99570.18;108672;1262;58744;-49
2023/07/09 00:53:49;;;;;;;0.60;0.50;;;;;;;15.64;100.00;99567.99;108645;1257;73050;-50
2023/07/09 00:56:22;;;;;;;2.10;0.40;;;;;;;15.61;100.00;99567.45;108648;1257;66419;-49
2023/07/09 00:58:50;;;;;;;2.60;0.40;;;;;;;15.59;100.00;99568.31;108646;1260;72517;-48
2023/07/09 01:01:18;;;;;;;0.40;0.40;;;;;;;15.57;100.00;99570.83;108750;1259;60623;-49
2023/07/09 01:03:47;;;;;;;2.90;0.50;;;;;;;15.55;100.00;99568.62;108663;1257;59995;-50
2023/07/09 01:06:15;;;;;;;1.00;0.40;;;;;;;15.55;100.00;99566.99;108654;1258;73940;-49
2023/07/09 01:08:43;;;;;;;1.90;0.50;;;;;;;15.54;100.00;99563.81;108734;1257;66293;-48
2023/07/09 01:11:21;;;;;;;0.90;0.70;;;;;;;15.55;100.00;99571.35;108661;1257;71416;-49
2023/07/09 01:13:54;;;;;;;1.10;0.50;;;;;;;15.55;100.00;99570.99;108740;1257;58809;-48
2023/07/09 01:16:24;;;;;;;1.00;0.50;;;;;;;15.53;100.00;99572.16;108765;1257;58843;-49
2023/07/09 01:18:51;;;;;;;1.00;0.40;;;;;;;15.51;100.00;99570.85;108730;1257;71493;-49
2023/07/09 01:21:19;;;;;;;2.00;0.50;;;;;;;15.49;100.00;99569.36;108819;1256;67528;-48
2023/07/09 01:23:47;;;;;;;1.10;0.50;;;;;;;15.47;100.00;99568.45;108831;1256;70507;-49
2023/07/09 01:26:18;;;;;;;3.30;0.50;;;;;;;15.44;100.00;99570.46;108837;1257;60390;-49
2023/07/09 01:28:46;;;;;;;1.50;0.40;;;;;;;15.43;100.00;99567.64;104999;1257;59746;-47
2023/07/09 01:31:14;;;;;;;2.50;0.60;;;;;;;15.45;100.00;99569.15;104605;1257;73644;-48
2023/07/09 01:33:44;;;;;;;1.10;0.40;;;;;;;15.46;100.00;99568.34;104724;1257;68067;-48
2023/07/09 01:36:18;;;;;;;2.50;0.50;;;;;;;15.45;100.00;99569.66;105103;1263;72464;-49
2023/07/09 01:38:45;;;;;;;4.60;0.60;;;;;;;15.42;100.00;99570.91;104749;1257;61810;-47
2023/07/09 01:41:13;;;;;;;0.80;0.50;;;;;;;15.39;100.00;99569.52;104742;1262;59688;-48
2023/07/09 01:43:42;;;;;;;1.30;0.50;;;;;;;15.35;100.00;99571.61;104748;1257;73044;-45
2023/07/09 01:46:11;;;;;;;2.00;0.50;;;;;;;15.31;100.00;99570.34;104707;1260;67501;-46
2023/07/09 01:48:42;;;;;;;0.70;0.40;;;;;;;15.27;100.00;99576.04;104950;1261;71473;-50
2023/07/09 01:51:16;;;;;;;1.20;0.60;;;;;;;15.24;100.00;99579.13;105497;1257;61669;-47
2023/07/09 01:53:44;;;;;;;0.90;0.40;;;;;;;15.24;100.00;99578.60;105397;1257;60182;-46
2023/07/09 01:56:11;;;;;;;1.20;0.50;;;;;;;15.23;100.00;99577.53;104847;1259;73122;-46
2023/07/09 01:58:41;;;;;;;1.70;0.50;;;;;;;15.23;100.00;99576.67;104621;1259;68118;-46
2023/07/09 02:01:11;;;;;;;4.40;0.50;;;;;;;15.21;100.00;99577.34;105578;1257;72506;-48
2023/07/09 02:03:38;;;;;;;2.30;0.50;;;;;;;15.20;100.00;99577.79;104632;1257;60070;-48
2023/07/09 02:06:09;;;;;;;3.60;0.50;;;;;;;15.15;100.00;99582.42;104777;1257;60013;-47
2023/07/09 02:08:37;;;;;;;1.00;0.60;;;;;;;15.11;100.00;99586.91;105104;1258;74440;-47
2023/07/09 02:11:04;;;;;;;1.50;0.40;;;;;;;15.06;100.00;99586.70;104749;1257;67575;-47
2023/07/09 02:13:32;;;;;;;4.00;0.50;;;;;;;15.03;100.00;99583.50;104652;1260;70479;-47
2023/07/09 02:15:59;;;;;;;1.60;0.50;;;;;;;15.01;100.00;99588.09;104722;1260;62127;-47
2023/07/09 02:18:28;;;;;;;0.40;0.40;;;;;;;15.02;100.00;99592.73;105590;1257;60009;-47
2023/07/09 02:20:55;;;;;;;1.30;0.40;;;;;;;15.02;100.00;99593.65;104914;1257;74469;-48
2023/07/09 02:23:26;;;;;;;0.60;0.50;;;;;;;15.02;100.00;99589.85;104670;1257;66300;-48
2023/07/09 02:25:54;;;;;;;1.50;0.60;;;;;;;15.03;100.00;99592.71;104640;1262;72435;-48
2023/07/09 02:28:21;;;;;;;2.10;0.40;;;;;;;15.02;100.00;99594.42;104763;1257;59955;-48
2023/07/09 02:30:48;;;;;;;0.70;0.50;;;;;;;14.97;100.00;99597.40;104751;1257;59746;-46
2023/07/09 02:33:16;;;;;;;0.80;0.40;;;;;;;14.94;100.00;99597.66;104856;1257;71765;-46
2023/07/09 02:35:43;;;;;;;2.30;0.40;;;;;;;14.92;100.00;99599.77;104702;1257;67788;-47
2023/07/09 02:38:10;;;;;;;2.20;0.60;;;;;;;14.90;100.00;99597.91;104718;1263;72699;-47
2023/07/09 02:40:38;;;;;;;3.80;0.40;;;;;;;14.88;100.00;99594.98;104771;1257;62210;-48
2023/07/09 02:43:06;;;;;;;2.30;0.40;;;;;;;14.87;100.00;99599.75;104828;1257;60502;-45
2023/07/09 02:45:33;;;;;;;1.10;0.70;;;;;;;14.87;100.00;99601.38;104776;1257;70966;-47
2023/07/09 02:48:00;;;;;;;2.60;0.70;;;;;;;14.88;100.00;99599.66;104546;1257;67596;-48
2023/07/09 02:50:31;;;;;;;1.60;0.50;;;;;;;14.91;100.00;99600.39;104885;1257;71393;-47
2023/07/09 02:52:58;;;;;;;1.30;0.60;;;;;;;14.91;100.00;99602.72;104772;1257;59689;-45
2023/07/09 02:55:26;;;;;;;2.50;0.50;;;;;;;14.91;100.00;99602.77;104959;1254;60036;-45
2023/07/09 02:57:53;;;;;;;0.90;0.50;;;;;;;14.88;100.00;99601.11;105096;1256;73455;-46
2023/07/09 03:00:20;;;;;;;1.00;0.40;;;;;;;14.86;100.00;99603.64;104888;1254;68227;-48
2023/07/09 03:02:48;;;;;;;1.50;0.40;;;;;;;14.83;100.00;99604.00;105070;1256;72420;-46
2023/07/09 03:05:15;;;;;;;3.40;0.40;;;;;;;14.81;100.00;99603.62;105020;1254;61590;-46
2023/07/09 03:07:43;;;;;;;0.60;0.50;;;;;;;14.79;100.00;99596.71;105040;1258;59273;-48
2023/07/09 03:10:10;;;;;;;4.10;0.50;;;;;;;14.81;100.00;99594.95;105037;1254;73005;-47
2023/07/09 03:12:37;;;;;;;3.60;0.40;;;;;;;14.83;100.00;99595.50;104998;1254;67645;-47
2023/07/09 03:15:05;;;;;;;1.00;0.50;;;;;;;14.86;100.00;99599.70;105112;1254;71376;-48
2023/07/09 03:17:33;;;;;;;1.60;0.50;;;;;;;14.87;100.00;99596.52;105509;1254;60037;-47
2023/07/09 03:20:00;;;;;;;1.20;0.70;;;;;;;14.86;100.00;99595.14;104991;1254;59840;-47
2023/07/09 03:22:27;;;;;;;1.80;0.50;;;;;;;14.85;100.00;99593.41;104991;1254;71762;-46
2023/07/09 03:24:55;;;;;;;1.10;0.50;;;;;;;14.83;100.00;99592.42;105014;1254;67869;-48
2023/07/09 03:27:22;;;;;;;1.30;0.40;;;;;;;14.83;100.00;99591.53;104917;1254;71944;-46
2023/07/09 03:29:49;;;;;;;1.50;0.50;;;;;;;14.85;100.00;99587.84;104964;1259;62667;-46
2023/07/09 03:32:17;;;;;;;2.10;0.50;;;;;;;14.86;100.00;99591.90;104909;1253;60380;-47
2023/07/09 03:34:44;;;;;;;1.70;0.50;;;;;;;14.87;100.00;99590.37;105017;1254;72954;-47
2023/07/09 03:37:12;;;;;;;1.60;0.50;;;;;;;14.91;100.00;99586.85;104938;1259;67616;-48
2023/07/09 03:39:39;;;;;;;3.50;0.50;;;;;;;14.94;100.00;99587.69;105068;1254;71437;-46
2023/07/09 03:42:06;;;;;;;1.20;0.50;;;;;;;14.98;100.00;99588.90;104930;1256;59660;-45
2023/07/09 03:44:36;;;;;;;1.70;0.60;;;;;;;15.00;100.00;99585.83;105398;1254;60486;-47
2023/07/09 03:47:03;;;;;;;0.80;0.50;;;;;;;15.00;100.00;99585.63;104985;1254;74695;-45
2023/07/09 03:49:32;;;;;;;0.50;0.50;;;;;;;15.01;100.00;99590.31;108129;1254;66760;-46
2023/07/09 03:51:59;;;;;;;2.90;0.50;;;;;;;15.00;100.00;99592.31;104907;1254;71646;-48
2023/07/09 03:54:26;;;;;;;1.90;0.50;;;;;;;15.02;100.00;99590.78;104983;1253;61655;-45
2023/07/09 03:56:53;;;;;;;0.90;0.50;;;;;;;15.05;100.00;99591.11;105004;1254;60580;-47
2023/07/09 03:59:21;;;;;;;0.60;0.50;;;;;;;15.11;100.00;99592.47;104953;1254;73778;-48
2023/07/09 04:01:48;;;;;;;1.70;0.50;;;;;;;15.18;100.00;99590.60;104911;1254;66373;-46
2023/07/09 04:04:20;;;;;;;1.00;0.50;;;;;;;15.21;100.00;99595.09;109019;1252;71434;-47
2023/07/09 04:06:47;;;;;;;1.20;0.80;;;;;;;15.24;100.00;99600.10;109124;1254;58801;-48
2023/07/09 04:09:15;;;;;;;2.00;0.60;;;;;;;15.25;100.00;99596.94;109193;1253;58705;-47
2023/07/09 04:11:42;;;;;;;1.60;0.60;;;;;;;15.28;100.00;99595.65;109123;1256;73821;-49
2023/07/09 04:14:09;;;;;;;1.50;0.70;;;;;;;15.31;100.00;99598.87;109139;1253;67586;-48
2023/07/09 04:16:37;;;;;;;7.10;0.40;;;;;;;15.35;100.00;99599.85;109102;1252;71263;-50
2023/07/09 04:19:04;;;;;;;0.70;0.50;;;;;;;15.40;100.00;99600.92;109115;1254;60371;-47
2023/07/09 04:21:31;;;;;;;1.30;0.50;;;;;;;15.48;100.00;99601.03;109155;1253;60453;-47
2023/07/09 04:23:59;;;;;;;0.80;0.50;;;;;;;15.60;100.00;99605.13;106387;1253;74472;-46
2023/07/09 04:26:27;;;;;;;0.80;0.50;;;;;;;15.72;100.00;99602.27;105063;1258;66373;-48
2023/07/09 04:28:54;;;;;;;0.90;0.60;;;;;;;15.81;100.00;99602.16;104975;1254;72435;-47
2023/07/09 04:31:22;;;;;;;1.50;0.60;;;;;;;15.89;100.00;99604.70;105004;1255;60498;-48
2023/07/09 04:33:51;;;;;;;3.60;0.50;;;;;;;15.95;100.00;99607.36;104916;1258;60562;-47
2023/07/09 04:36:19;;;;;;;2.10;0.50;;;;;;;15.99;100.00;99613.04;104954;1259;72988;-47
2023/07/09 04:38:46;;;;;;;0.70;0.60;;;;;;;16.04;100.00;99610.98;104910;1254;67618;-47
2023/07/09 04:41:13;;;;;;;5.20;0.50;;;;;;;16.10;100.00;99616.17;105067;1258;71375;-47
2023/07/09 04:43:41;;;;;;;0.70;0.50;;;;;;;16.16;100.00;99612.45;105069;1256;60576;-47
2023/07/09 04:46:08;;;;;;;1.00;0.50;;;;;;;16.23;100.00;99611.58;105002;1257;60586;-46
2023/07/09 04:48:35;;;;;;;2.60;0.40;;;;;;;16.33;100.00;99613.23;104911;1259;73791;-47
2023/07/09 04:51:03;;;;;;;1.10;0.70;;;;;;;16.41;100.00;99616.20;104928;1258;66402;-49
2023/07/09 04:53:30;;;;;;;0.90;0.50;;;;;;;16.48;100.00;99619.66;104937;1256;72453;-47
2023/07/09 04:55:57;;;;;;;1.40;0.50;;;;;;;16.55;100.00;99622.23;104983;1253;61676;-47
2023/07/09 04:58:25;;;;;;;2.30;0.50;;;;;;;16.61;100.00;99615.84;106004;1254;60655;-47
2023/07/09 05:00:52;;;;;;;1.20;0.50;;;;;;;16.69;100.00;99622.48;104998;1254;71820;-46
2023/07/09 05:03:20;;;;;;;4.10;0.40;;;;;;;16.78;100.00;99622.69;104865;1255;68147;-46
2023/07/09 05:05:47;;;;;;;1.10;0.60;;;;;;;16.87;100.00;99616.75;105067;1256;71195;-47
2023/07/09 05:08:14;;;;;;;1.90;0.60;;;;;;;16.96;100.00;99619.66;105104;1254;61306;-47
2023/07/09 05:10:43;;;;;;;2.40;0.50;;;;;;;17.06;100.00;99623.11;105078;1252;60541;-46
2023/07/09 05:13:10;;;;;;;5.80;0.50;;;;;;;17.14;100.00;99627.00;105575;1257;74454;-48
2023/07/09 05:15:43;;;;;;;1.00;0.40;;;;;;;17.21;100.00;99625.72;105096;1259;66358;-48
2023/07/09 05:18:12;;;;;;;0.70;0.50;;;;;;;17.27;100.00;99623.08;105208;1256;72650;-46
2023/07/09 05:20:39;;;;;;;0.60;0.40;;;;;;;17.33;100.00;99622.41;105153;1254;60772;-47
2023/07/09 05:23:10;;;;;;;0.70;0.40;;;;;;;17.39;100.00;99618.86;105127;1257;60556;-47
2023/07/09 05:25:37;;;;;;;1.50;0.40;;;;;;;17.47;100.00;99622.75;105025;1259;72869;-48
2023/07/09 05:28:05;;;;;;;1.30;0.50;;;;;;;17.56;100.00;99618.95;105110;1257;67916;-47
2023/07/09 05:30:32;;;;;;;1.00;0.70;;;;;;;17.67;100.00;99625.34;105075;1254;72678;-48
2023/07/09 05:32:59;;;;;;;2.30;0.50;;;;;;;17.78;100.00;99629.23;104923;1255;60558;-49
2023/07/09 05:35:27;;;;;;;1.00;0.40;;;;;;;17.86;100.00;99629.63;105087;1254;60485;-47
2023/07/09 05:37:55;;;;;;;0.70;0.40;;;;;;;17.93;100.00;99635.42;105149;1254;74338;-49
2023/07/09 05:40:22;;;;;;;1.80;0.40;;;;;;;18.02;100.00;99639.47;104926;1254;67907;-50
2023/07/09 05:42:49;;;;;;;3.50;0.50;;;;;;;18.10;100.00;99639.71;105050;1257;73749;-47
2023/07/09 05:45:17;;;;;;;0.80;0.40;;;;;;;18.17;100.00;99649.27;104923;1254;61827;-48
2023/07/09 05:47:44;;;;;;;0.70;0.40;;;;;;;18.25;100.00;99645.17;104994;1256;60559;-50
2023/07/09 05:50:12;;;;;;;0.70;0.60;;;;;;;18.32;100.00;99642.77;105013;1259;73775;-46
2023/07/09 05:52:39;;;;;;;0.40;0.30;;;;;;;18.39;100.00;99648.15;105062;1259;68070;-46
2023/07/09 05:55:07;;;;;;;0.40;0.30;;;;;;;18.46;100.00;99653.59;105000;1259;72689;-50
2023/07/09 05:57:34;;;;;;;1.00;0.50;;;;;;;18.53;100.00;99652.64;104872;1256;61072;-48
2023/07/09 06:00:01;;;;;;;1.10;0.40;;;;;;;18.61;100.00;99658.79;104868;1254;60536;-48
2023/07/09 06:02:39;;;;;;;0.60;0.30;;;;;;;18.68;100.00;99661.63;105035;1259;73847;-50
2023/07/09 06:05:10;;;;;;;0.90;0.40;;;;;;;18.74;100.00;99664.98;104959;1259;65515;-49
2023/07/09 06:07:38;;;;;;;0.40;0.40;;;;;;;18.78;100.00;99666.23;105224;1254;73072;-47
2023/07/09 06:10:07;;;;;;;2.10;0.30;;;;;;;18.83;100.00;99668.02;104873;1254;61077;-46
2023/07/09 06:12:35;;;;;;;0.70;0.40;;;;;;;18.87;100.00;99670.73;105215;1254;60363;-48
2023/07/09 06:15:03;;;;;;;1.30;0.40;;;;;;;18.93;100.00;99671.92;104983;1254;74463;-48
2023/07/09 06:17:30;;;;;;;1.80;0.40;;;;;;;18.97;100.00;99674.11;105243;1254;68026;-48
2023/07/09 06:19:58;;;;;;;0.60;0.30;;;;;;;19.02;100.00;99673.87;104939;1257;72737;-47
2023/07/09 06:22:26;;;;;;;3.10;0.40;;;;;;;19.07;100.00;99673.83;105325;1256;60687;-49
2023/07/09 06:24:54;;;;;;;0.40;0.30;;;;;;;19.13;100.00;99676.22;104877;1259;60437;-49
2023/07/09 06:27:21;;;;;;;1.30;0.40;;;;;;;19.19;100.00;99676.39;104824;1255;73813;-45
2023/07/09 06:29:48;;;;;;;1.20;0.30;;;;;;;19.25;100.00;99671.32;104880;1254;67753;-48
2023/07/09 06:32:15;;;;;;;0.60;0.40;;;;;;;19.33;100.00;99671.19;104788;1254;73220;-49
2023/07/09 06:34:43;;;;;;;1.20;0.40;;;;;;;19.40;100.00;99668.23;105005;1254;60289;-48
2023/07/09 06:37:10;;;;;;;0.90;0.40;;;;;;;19.46;100.00;99670.23;104827;1258;60377;-47
2023/07/09 06:39:37;;;;;;;0.90;0.40;;;;;;;19.52;100.00;99671.55;105000;1259;73819;-49
2023/07/09 06:42:05;;;;;;;1.10;0.40;;;;;;;19.59;100.00;99673.00;104936;1254;67598;-47
2023/07/09 06:44:50;;;;;;;0.50;0.40;;;;;;;19.66;100.00;99678.20;104863;1254;71724;-48
2023/07/09 06:47:17;;;;;;;1.30;0.40;;;;;;;19.74;100.00;99673.91;105001;1255;60555;-50
2023/07/09 06:49:45;;;;;;;2.50;0.40;;;;;;;19.82;100.00;99674.65;104922;1254;62281;-47
2023/07/09 06:52:12;;;;;;;5.30;0.30;;;;;;;19.90;100.00;99670.09;104866;1254;72639;-48
2023/07/09 06:54:39;;;;;;;1.90;0.30;;;;;;;19.98;100.00;99671.70;104917;1254;67601;-47
2023/07/09 06:57:07;;;;;;;0.90;0.40;;;;;;;20.08;100.00;99668.70;104853;1254;73115;-49
2023/07/09 06:59:34;;;;;;;0.40;0.30;;;;;;;20.15;100.00;99671.45;104953;1258;60457;-48
2023/07/09 07:02:02;;;;;;;0.50;0.30;;;;;;;20.25;100.00;99671.66;104892;1259;60461;-50
2023/07/09 07:04:29;;;;;;;0.90;0.40;;;;;;;20.34;100.00;99673.64;104911;1254;72641;-50
2023/07/09 07:06:56;;;;;;;1.20;0.30;;;;;;;20.42;100.00;99671.47;104940;1252;66619;-49
2023/07/09 07:09:24;;;;;;;0.40;0.30;;;;;;;20.50;100.00;99672.39;104956;1258;70798;-47
2023/07/09 07:11:51;;;;;;;3.50;0.40;;;;;;;20.58;100.00;99674.95;104912;1254;60427;-50
2023/07/09 07:14:18;;;;;;;0.70;0.30;;;;;;;20.66;100.00;99673.25;104981;1253;60568;-49
2023/07/09 07:16:46;;;;;;;1.00;0.30;;;;;;;20.74;100.00;99682.54;109047;1255;74166;-48
2023/07/09 07:19:13;;;;;;;2.90;0.30;;;;;;;20.83;100.00;99687.34;109101;1257;67846;-47
2023/07/09 07:21:40;;;;;;;0.50;0.20;;;;;;;20.94;100.00;99688.70;109154;1254;71630;-48
2023/07/09 07:24:08;;;;;;;0.30;0.20;;;;;;;21.05;100.00;99693.52;109111;1254;59595;-48
2023/07/09 07:26:35;;;;;;;0.30;0.20;;;;;;;21.16;100.00;99693.46;108354;1257;60023;-48
2023/07/09 07:29:02;;;;;;;0.40;0.20;;;;;;;21.27;100.00;99699.72;104984;1254;74232;-48
2023/07/09 07:31:30;;;;;;;5.10;0.30;;;;;;;21.37;100.00;99696.98;104930;1254;67576;-49
2023/07/09 07:33:58;;;;;;;0.50;0.20;;;;;;;21.45;100.00;99696.89;105485;1254;71419;-47
2023/07/09 07:36:25;;;;;;;2.00;0.20;;;;;;;21.54;100.00;99702.11;104841;1254;61106;-49
2023/07/09 07:38:57;;;;;;;0.30;0.20;;;;;;;21.60;100.00;99705.34;105924;1253;60501;-49
2023/07/09 07:41:25;;;;;;;2.20;0.20;;;;;;;21.65;100.00;99710.15;104877;1259;73891;-48
2023/07/09 07:43:52;;;;;;;0.60;0.20;;;;;;;21.71;100.00;99709.08;105314;1259;67523;-48
2023/07/09 07:46:20;;;;;;;1.40;0.20;;;;;;;21.76;100.00;99705.64;104673;1259;72715;-46
2023/07/09 07:48:47;;;;;;;1.40;0.20;;;;;;;21.82;100.00;99708.20;104812;1254;60845;-48
2023/07/09 07:51:14;;;;;;;0.40;0.20;;;;;;;21.88;100.00;99712.00;104988;1254;60501;-48
2023/07/09 07:53:42;;;;;;;1.70;0.20;;;;;;;21.95;100.00;99707.70;104777;1254;74233;-49
2023/07/09 07:56:10;;;;;;;0.40;0.20;;;;;;;22.02;100.00;99711.27;104905;1254;67681;-48
2023/07/09 07:58:37;;;;;;;4.90;0.70;;;;;;;22.05;100.00;99714.91;105026;1254;71374;-49
2023/07/09 08:01:04;;;;;;;0.50;0.20;;;;;;;22.07;100.00;99711.48;104871;1254;60574;-48
2023/07/09 08:03:32;;;;;;;0.50;0.40;;;;;;;22.09;100.00;99716.99;105375;1254;60348;-50
2023/07/09 08:05:59;;;;;;;0.30;0.20;;;;;;;22.12;100.00;99711.14;104865;1254;74241;-48
2023/07/09 08:08:29;;;;;;;0.20;0.20;;;;;;;22.17;100.00;99712.73;105041;1254;68442;-48
2023/07/09 08:11:04;;;;;;;1.30;0.20;;;;;;;22.22;100.00;99711.60;104967;1254;73676;-47
2023/07/09 08:13:37;;;;;;;0.20;0.10;;;;;;;22.25;100.00;99710.39;105349;1258;60489;-47
2023/07/09 08:16:05;;;;;;;0.60;0.20;;;;;;;22.31;100.00;99719.52;105236;1254;60400;-49
2023/07/09 08:18:33;;;;;;;2.00;0.20;;;;;;;22.34;100.00;99716.48;105244;1254;72759;-46
2023/07/09 08:21:01;;;;;;;0.30;0.10;;;;;;;22.36;100.00;99713.91;105015;1259;66363;-47
2023/07/09 08:23:28;;;;;;;0.20;0.20;;;;;;;22.39;100.00;99710.67;105244;1259;72672;-47
2023/07/09 08:25:56;;;;;;;0.20;0.20;;;;;;;22.42;100.00;99715.77;105131;1258;60598;-47
2023/07/09 08:28:24;;;;;;;0.20;0.20;;;;;;;22.46;100.00;99718.95;105405;1258;60456;-48
2023/07/09 08:30:52;;;;;;;1.30;0.30;;;;;;;22.53;100.00;99723.94;105102;1259;75207;-47
2023/07/09 08:33:20;;;;;;;1.20;0.10;;;;;;;22.57;100.00;99726.43;105022;1259;66300;-48
2023/07/09 08:35:51;;;;;;;0.30;0.20;;;;;;;22.63;100.00;99726.09;105215;1257;72439;-48
2023/07/09 08:38:19;;;;;;;0.20;0.20;;;;;;;22.68;100.00;99722.70;104939;1253;60467;-47
2023/07/09 08:41:00;;;;;;;0.80;0.20;;;;;;;22.73;100.00;99732.76;105080;1256;61096;-47
2023/07/09 08:43:54;;;;;;;0.30;0.20;;;;;;;22.78;100.00;99734.66;105013;1260;73737;-46
2023/07/09 08:46:29;;;;;;;0.70;0.20;;;;;;;22.79;100.00;99733.45;104810;1260;66657;-48
2023/07/09 08:48:57;;;;;;;0.40;0.20;;;;;;;22.83;100.00;99738.88;105119;1255;71406;-47
2023/07/09 08:51:29;;;;;;;1.70;0.20;;;;;;;22.88;100.00;99737.36;104969;1259;60562;-46
2023/07/09 08:54:00;;;;;;;0.40;0.20;;;;;;;22.93;100.00;99740.30;104935;1254;60482;-47
2023/07/09 08:56:30;;;;;;;0.20;0.20;;;;;;;22.95;100.00;99734.78;105037;1258;74864;-47
2023/07/09 08:59:00;;;;;;;0.30;0.20;;;;;;;22.94;100.00;99737.77;105025;1257;67566;-47
2023/07/09 09:01:34;;;;;;;0.30;0.20;;;;;;;22.95;100.00;99736.40;104936;1259;72692;-49
2023/07/09 09:04:19;;;;;;;1.20;0.30;;;;;;;23.00;100.00;99738.67;105845;1258;60567;-50
2023/07/09 09:06:58;;;;;;;0.20;0.20;;;;;;;23.07;100.00;99735.39;105443;1254;60357;-47
2023/07/09 09:09:38;;;;;;;0.80;0.20;;;;;;;23.13;100.00;99737.77;105029;1254;72563;-47
2023/07/09 09:12:35;;;;;;;0.20;0.20;;;;;;;23.22;100.00;99746.89;104912;1259;66766;-51
2023/07/09 09:15:10;;;;;;;1.40;0.30;;;;;;;23.30;100.00;99746.61;105003;1254;72538;-47
2023/07/09 09:17:38;;;;;;;0.60;0.30;;;;;;;23.37;100.00;99738.92;104915;1255;60415;-47
2023/07/09 09:20:17;;;;;;;0.60;0.20;;;;;;;23.44;100.00;99741.23;104873;1254;60720;-46
2023/07/09 09:23:01;;;;;;;2.00;0.30;;;;;;;23.50;100.00;99743.89;106422;1257;72984;-48
2023/07/09 09:25:29;;;;;;;;;;;;;;;23.50;100.00;99743.69;105406;1254;67516;-48
2023/07/09 09:28:02;;;;;;;1.50;0.20;;;;;;;23.49;100.00;99740.85;104775;1254;72614;-48
2023/07/09 09:30:30;;;;;;;0.80;0.40;;;;;;;23.49;100.00;99735.52;104960;1254;60698;-47
2023/07/09 09:32:59;;;;;;;0.60;0.20;;;;;;;23.51;100.00;99741.80;104768;1254;60563;-47
2023/07/09 09:35:32;;;;;;;0.30;0.30;;;;;;;23.53;100.00;99739.23;105038;1254;73762;-49
2023/07/09 09:37:59;;;;;;;0.20;0.20;;;;;;;23.56;100.00;99735.77;105027;1257;67539;-49
2023/07/09 09:40:28;;;;;;;0.30;0.20;;;;;;;23.62;100.00;99733.43;105535;1257;73257;-49
2023/07/09 09:42:57;;;;;;;2.50;0.20;;;;;;;23.66;100.00;99729.05;106153;1259;60087;-48
2023/07/09 09:45:33;;;;;;;0.20;0.20;;;;;;;23.68;100.00;99730.05;104929;1254;60390;-48
2023/07/09 09:48:01;;;;;;;1.60;0.40;;;;;;;23.72;100.00;99726.63;104986;1254;72640;-48
2023/07/09 09:50:32;;;;;;;0.30;0.20;;;;;;;23.75;100.00;99727.02;109095;1254;67527;-50
2023/07/09 09:53:01;;;;;;;0.30;0.30;;;;;;;23.82;100.00;99728.89;109040;1254;72970;-50
2023/07/09 09:55:30;;;;;;;0.40;0.30;;;;;;;23.86;100.00;99728.22;109122;1253;60176;-50
2023/07/09 09:57:58;;;;;;;3.70;3.10;;;;;;;23.88;100.00;99728.45;108277;1259;60746;-47
2023/07/09 10:00:28;;;;;;;2.30;0.70;;;;;;;23.86;100.00;99730.05;109112;1254;73774;-48
2023/07/09 10:03:03;;;;;;;3.70;2.30;;;;;;;23.88;100.00;99728.20;109089;1254;66768;-50
2023/07/09 10:05:34;;;;;;;11.70;6.20;;;;;;;23.93;100.00;99723.43;109095;1254;74232;-49
2023/07/09 10:08:16;;;;;;;2.00;0.40;;;;;;;23.98;100.00;99723.52;109159;1254;60065;-48
2023/07/09 10:10:44;;;;;;;1.60;0.90;;;;;;;23.98;100.00;99724.05;109013;1254;60187;-48
2023/07/09 10:13:22;;;;;;;1.50;0.70;;;;;;;24.01;100.00;99721.93;109005;1254;75298;-50
2023/07/09 10:15:56;;;;;;;0.40;0.30;;;;;;;24.01;100.00;99728.98;108883;1254;66266;-49
2023/07/09 10:18:29;;;;;;;0.50;0.30;;;;;;;23.97;100.00;99726.00;109073;1254;72669;-51
2023/07/09 10:21:08;;;;;;;0.40;0.30;;;;;;;23.92;100.00;99725.96;108912;1254;58849;-50
2023/07/09 10:23:44;;;;;;;1.70;0.30;;;;;;;23.90;100.00;99722.90;109083;1258;60439;-49
2023/07/09 10:26:16;;;;;;;1.70;0.30;;;;;;;23.91;100.00;99720.90;108869;1253;74730;-51
2023/07/09 10:28:53;;;;;;;1.90;0.20;;;;;;;23.97;100.00;99719.75;105216;1255;65857;-48
2023/07/09 10:31:31;;;;;;;0.30;0.20;;;;;;;24.02;100.00;99723.61;104883;1256;71463;-49
2023/07/09 10:34:05;;;;;;;0.30;0.20;;;;;;;24.05;100.00;99721.44;105400;1254;60475;-48
2023/07/09 10:36:36;;;;;;;0.30;0.20;;;;;;;24.05;100.00;99720.02;105069;1255;60459;-48
2023/07/09 10:39:16;;;;;;;0.40;0.30;;;;;;;23.97;100.00;99715.12;105017;1259;74259;-48
2023/07/09 10:41:43;;;;;;;2.30;0.30;;;;;;;23.88;100.00;99714.05;104824;1259;67535;-49
2023/07/09 10:44:15;;;;;;;1.60;0.20;;;;;;;23.84;100.00;99709.23;104859;1260;73120;-47
2023/07/09 10:46:43;;;;;;;1.60;0.30;;;;;;;23.83;100.00;99704.91;104984;1253;60446;-49
2023/07/09 10:49:12;;;;;;;0.70;0.30;;;;;;;23.89;100.00;99701.16;105479;1255;60482;-49
2023/07/09 10:51:43;;;;;;;0.60;0.30;;;;;;;23.96;100.00;99706.29;104978;1254;72589;-47
2023/07/09 10:54:24;;;;;;;0.20;0.20;;;;;;;24.01;100.00;99705.23;105419;1255;68019;-46
2023/07/09 10:56:57;;;;;;;0.70;0.20;;;;;;;24.01;100.00;99715.05;104884;1256;73084;-47
2023/07/09 10:59:36;;;;;;;0.70;0.30;;;;;;;24.04;100.00;99713.48;105057;1259;60511;-46
2023/07/09 11:02:25;;;;;;;0.30;0.20;;;;;;;24.06;100.00;99710.95;105043;1259;60576;-48
2023/07/09 11:05:04;;;;;;;1.20;0.30;;;;;;;24.04;100.00;99715.14;105395;1259;73779;-49
2023/07/09 11:07:33;;;;;;;1.40;0.20;;;;;;;24.05;100.00;99710.81;105318;1257;67990;-47
2023/07/09 11:10:02;;;;;;;1.50;0.30;;;;;;;24.11;100.00;99706.55;104979;1255;72927;-50
2023/07/09 11:12:33;;;;;;;0.30;0.20;;;;;;;24.20;100.00;99703.02;104927;1260;61161;-46
2023/07/09 11:15:08;;;;;;;0.80;0.50;;;;;;;24.28;100.00;99702.57;105238;1254;60495;-49
2023/07/09 11:17:37;;;;;;;0.90;0.30;;;;;;;24.34;100.00;99695.29;105117;1254;72130;-48
2023/07/09 11:20:17;;;;;;;1.10;0.30;;;;;;;24.37;100.00;99694.62;104763;1254;68056;-47
2023/07/09 11:22:51;;;;;;;0.50;0.20;;;;;;;24.34;100.00;99693.46;104936;1259;72762;-46
2023/07/09 11:25:28;;;;;;;0.60;0.40;;;;;;;24.33;100.00;99694.66;105687;1260;60535;-48
2023/07/09 11:28:04;;;;;;;1.90;0.30;;;;;;;24.33;100.00;99704.21;104929;1254;60635;-49